sensor_id;sensor_type;location;lat;lon;timestamp;temperature;humidity
44447;DHT22;30152;52.066;5.358;2023-02-19T08:43:58;9.50;99.90
44447;DHT22;30152;52.066;5.358;2023-02-19T08:48:49;9.10;99.90
44447;DHT22;30152;52.066;5.358;2023-02-19T08:51:15;9.50;99.90
44447;DHT22;30152;52.066;5.358;2023-02-19T08:53:41;9.60;99.90
44447;DHT22;30152;52.066;5.358;2023-02-19T08:56:08;9.50;99.90
44447;DHT22;30152;52.066;5.358;2023-02-19T08:58:34;9.30;99.90
44447;DHT22;30152;52.066;5.358;2023-02-19T09:01:00;9.40;99.90
44447;DHT22;30152;52.066;5.358;2023-02-19T09:05:52;9.20;99.90
44447;DHT22;30152;52.066;5.358;2023-02-19T09:15:37;9.50;99.90
44447;DHT22;30152;52.066;5.358;2023-02-19T09:18:03;9.10;99.90
44447;DHT22;30152;52.066;5.358;2023-02-19T09:22:58;9.20;99.90
44447;DHT22;30152;52.066;5.358;2023-02-19T09:25:24;9.50;99.90
44447;DHT22;30152;52.066;5.358;2023-02-19T09:27:53;9.50;99.90
44447;DHT22;30152;52.066;5.358;2023-02-19T09:30:19;9.70;99.90
44447;DHT22;30152;52.066;5.358;2023-02-19T09:32:45;9.90;99.90
44447;DHT22;30152;52.066;5.358;2023-02-19T09:35:10;9.60;99.90
44447;DHT22;30152;52.066;5.358;2023-02-19T09:37:36;9.70;99.90
44447;DHT22;30152;52.066;5.358;2023-02-19T09:42:28;9.30;99.90
44447;DHT22;30152;52.066;5.358;2023-02-19T09:44:57;9.90;99.90
44447;DHT22;30152;52.066;5.358;2023-02-19T09:47:27;9.60;99.90
44447;DHT22;30152;52.066;5.358;2023-02-19T09:50:29;9.70;99.90
44447;DHT22;30152;52.066;5.358;2023-02-19T09:52:52;9.70;99.90
44447;DHT22;30152;52.066;5.358;2023-02-19T09:55:38;9.90;99.90
44447;DHT22;30152;52.066;5.358;2023-02-19T10:01:09;10.00;99.90
44447;DHT22;30152;52.066;5.358;2023-02-19T10:03:42;10.00;99.90
44447;DHT22;30152;52.066;5.358;2023-02-19T10:06:17;9.70;99.90
44447;DHT22;30152;52.066;5.358;2023-02-19T10:08:46;10.10;99.90
44447;DHT22;30152;52.066;5.358;2023-02-19T10:11:12;9.60;99.90
44447;DHT22;30152;52.066;5.358;2023-02-19T10:13:44;9.70;99.90
44447;DHT22;30152;52.066;5.358;2023-02-19T10:16:16;9.50;99.90
44447;DHT22;30152;52.066;5.358;2023-02-19T10:18:44;10.00;99.90
44447;DHT22;30152;52.066;5.358;2023-02-19T10:21:18;10.20;99.90
44447;DHT22;30152;52.066;5.358;2023-02-19T10:23:46;10.10;99.90
44447;DHT22;30152;52.066;5.358;2023-02-19T10:28:39;10.10;99.90
44447;DHT22;30152;52.066;5.358;2023-02-19T10:31:15;10.60;99.90
44447;DHT22;30152;52.066;5.358;2023-02-19T10:33:59;10.50;99.90
44447;DHT22;30152;52.066;5.358;2023-02-19T10:38:55;9.90;99.90
44447;DHT22;30152;52.066;5.358;2023-02-19T10:41:23;9.80;99.90
44447;DHT22;30152;52.066;5.358;2023-02-19T10:44:43;9.80;99.90
44447;DHT22;30152;52.066;5.358;2023-02-19T10:49:31;10.10;99.90
44447;DHT22;30152;52.066;5.358;2023-02-19T10:52:20;10.50;99.90
44447;DHT22;30152;52.066;5.358;2023-02-19T10:55:34;10.30;99.90
44447;DHT22;30152;52.066;5.358;2023-02-19T10:57:35;10.50;99.90
44447;DHT22;30152;52.066;5.358;2023-02-19T11:02:43;10.10;99.90
44447;DHT22;30152;52.066;5.358;2023-02-19T11:07:38;9.80;99.90
44447;DHT22;30152;52.066;5.358;2023-02-19T11:10:04;10.10;99.90
44447;DHT22;30152;52.066;5.358;2023-02-19T11:12:33;9.70;99.90
44447;DHT22;30152;52.066;5.358;2023-02-19T11:15:28;9.60;99.90
44447;DHT22;30152;52.066;5.358;2023-02-19T11:20:48;10.20;99.90
44447;DHT22;30152;52.066;5.358;2023-02-19T11:23:18;9.50;99.90
44447;DHT22;30152;52.066;5.358;2023-02-19T11:25:48;9.70;99.90
44447;DHT22;30152;52.066;5.358;2023-02-19T11:28:36;9.20;99.90
44447;DHT22;30152;52.066;5.358;2023-02-19T11:31:28;8.90;99.90
44447;DHT22;30152;52.066;5.358;2023-02-19T11:38:54;8.80;99.90
44447;DHT22;30152;52.066;5.358;2023-02-19T11:41:46;9.00;99.90
44447;DHT22;30152;52.066;5.358;2023-02-19T11:44:23;9.20;99.90
44447;DHT22;30152;52.066;5.358;2023-02-19T11:50:12;8.90;99.90
44447;DHT22;30152;52.066;5.358;2023-02-19T12:06:44;9.30;99.90
44447;DHT22;30152;52.066;5.358;2023-02-19T12:15:16;9.20;99.90
44447;DHT22;30152;52.066;5.358;2023-02-19T12:20:25;9.50;99.90
44447;DHT22;30152;52.066;5.358;2023-02-19T12:28:31;9.00;99.90
44447;DHT22;30152;52.066;5.358;2023-02-19T12:31:20;10.30;99.90
44447;DHT22;30152;52.066;5.358;2023-02-19T12:43:03;9.30;99.90
44447;DHT22;30152;52.066;5.358;2023-02-19T12:45:36;9.50;99.90
44447;DHT22;30152;52.066;5.358;2023-02-19T12:48:08;9.70;99.90
44447;DHT22;30152;52.066;5.358;2023-02-19T12:50:37;8.80;99.90
44447;DHT22;30152;52.066;5.358;2023-02-19T12:55:55;8.80;99.90
44447;DHT22;30152;52.066;5.358;2023-02-19T12:58:38;9.20;99.90
44447;DHT22;30152;52.066;5.358;2023-02-19T13:01:07;8.70;99.90
44447;DHT22;30152;52.066;5.358;2023-02-19T13:04:06;8.90;99.90
44447;DHT22;30152;52.066;5.358;2023-02-19T13:09:47;8.50;99.90
44447;DHT22;30152;52.066;5.358;2023-02-19T13:12:20;8.50;99.90
44447;DHT22;30152;52.066;5.358;2023-02-19T13:17:40;9.00;99.90
44447;DHT22;30152;52.066;5.358;2023-02-19T13:20:19;9.50;99.90
44447;DHT22;30152;52.066;5.358;2023-02-19T13:37:17;8.50;99.90
44447;DHT22;30152;52.066;5.358;2023-02-19T13:39:48;8.10;99.90
44447;DHT22;30152;52.066;5.358;2023-02-19T13:42:34;8.00;99.90
44447;DHT22;30152;52.066;5.358;2023-02-19T13:45:02;7.70;99.90
44447;DHT22;30152;52.066;5.358;2023-02-19T13:47:57;8.10;99.90
44447;DHT22;30152;52.066;5.358;2023-02-19T13:50:32;7.80;99.90
44447;DHT22;30152;52.066;5.358;2023-02-19T13:52:58;8.10;99.90
44447;DHT22;30152;52.066;5.358;2023-02-19T13:58:34;7.90;99.90
44447;DHT22;30152;52.066;5.358;2023-02-19T14:01:01;7.60;99.90
44447;DHT22;30152;52.066;5.358;2023-02-19T14:03:44;8.20;99.90
44447;DHT22;30152;52.066;5.358;2023-02-19T14:06:10;8.40;99.90
44447;DHT22;30152;52.066;5.358;2023-02-19T14:08:52;8.40;99.90
44447;DHT22;30152;52.066;5.358;2023-02-19T14:14:41;8.30;99.90
44447;DHT22;30152;52.066;5.358;2023-02-19T14:30:52;8.10;99.90
44447;DHT22;30152;52.066;5.358;2023-02-19T14:33:42;7.90;99.90
44447;DHT22;30152;52.066;5.358;2023-02-19T14:36:25;8.40;99.90
44447;DHT22;30152;52.066;5.358;2023-02-19T14:38:55;8.20;99.90
44447;DHT22;30152;52.066;5.358;2023-02-19T14:41:22;8.00;99.90
44447;DHT22;30152;52.066;5.358;2023-02-19T14:43:50;7.80;99.90
44447;DHT22;30152;52.066;5.358;2023-02-19T14:46:33;8.20;99.90
44447;DHT22;30152;52.066;5.358;2023-02-19T14:51:51;8.20;99.90
44447;DHT22;30152;52.066;5.358;2023-02-19T14:54:20;7.60;99.90
44447;DHT22;30152;52.066;5.358;2023-02-19T14:56:51;8.50;99.90
44447;DHT22;30152;52.066;5.358;2023-02-19T14:59:23;8.20;99.90
44447;DHT22;30152;52.066;5.358;2023-02-19T15:02:11;8.10;99.90
44447;DHT22;30152;52.066;5.358;2023-02-19T15:04:37;8.00;99.90
44447;DHT22;30152;52.066;5.358;2023-02-19T15:07:08;8.10;99.90
44447;DHT22;30152;52.066;5.358;2023-02-19T15:09:43;8.70;99.90
44447;DHT22;30152;52.066;5.358;2023-02-19T15:12:33;8.40;99.90
44447;DHT22;30152;52.066;5.358;2023-02-19T15:15:01;8.60;99.90
44447;DHT22;30152;52.066;5.358;2023-02-19T15:17:30;8.50;99.90
44447;DHT22;30152;52.066;5.358;2023-02-19T15:19:59;8.30;99.90
44447;DHT22;30152;52.066;5.358;2023-02-19T15:22:29;8.40;99.90
44447;DHT22;30152;52.066;5.358;2023-02-19T15:25:00;8.20;99.90
44447;DHT22;30152;52.066;5.358;2023-02-19T15:29:52;7.90;99.90
44447;DHT22;30152;52.066;5.358;2023-02-19T15:32:20;8.10;99.90
44447;DHT22;30152;52.066;5.358;2023-02-19T15:35:00;8.10;99.90
44447;DHT22;30152;52.066;5.358;2023-02-19T15:37:29;8.50;99.90
44447;DHT22;30152;52.066;5.358;2023-02-19T15:39:56;7.90;99.90
44447;DHT22;30152;52.066;5.358;2023-02-19T15:42:25;7.80;99.90
44447;DHT22;30152;52.066;5.358;2023-02-19T15:45:00;8.40;99.90
44447;DHT22;30152;52.066;5.358;2023-02-19T15:50:07;8.10;99.90
44447;DHT22;30152;52.066;5.358;2023-02-19T15:52:48;7.60;99.90
44447;DHT22;30152;52.066;5.358;2023-02-19T15:55:39;8.10;99.90
44447;DHT22;30152;52.066;5.358;2023-02-19T15:58:18;10.00;99.90
44447;DHT22;30152;52.066;5.358;2023-02-19T16:03:24;8.00;99.90
44447;DHT22;30152;52.066;5.358;2023-02-19T16:06:07;8.10;99.90
44447;DHT22;30152;52.066;5.358;2023-02-19T16:08:40;7.90;99.90
44447;DHT22;30152;52.066;5.358;2023-02-19T16:13:46;8.00;99.90
44447;DHT22;30152;52.066;5.358;2023-02-19T16:16:35;7.30;99.90
44447;DHT22;30152;52.066;5.358;2023-02-19T16:19:02;8.10;99.90
44447;DHT22;30152;52.066;5.358;2023-02-19T16:21:28;7.70;99.90
44447;DHT22;30152;52.066;5.358;2023-02-19T16:31:51;7.80;99.90
44447;DHT22;30152;52.066;5.358;2023-02-19T16:34:40;7.00;99.90
44447;DHT22;30152;52.066;5.358;2023-02-19T16:37:54;7.90;99.90
44447;DHT22;30152;52.066;5.358;2023-02-19T16:45:15;7.80;99.90
44447;DHT22;30152;52.066;5.358;2023-02-19T16:50:14;8.50;99.90
44447;DHT22;30152;52.066;5.358;2023-02-19T16:52:54;7.90;99.90
44447;DHT22;30152;52.066;5.358;2023-02-19T16:55:21;7.40;99.90
44447;DHT22;30152;52.066;5.358;2023-02-19T17:00:23;7.90;99.90
44447;DHT22;30152;52.066;5.358;2023-02-19T17:02:56;7.60;99.90
44447;DHT22;30152;52.066;5.358;2023-02-19T17:05:24;7.40;99.90
44447;DHT22;30152;52.066;5.358;2023-02-19T17:10:18;7.60;99.90
44447;DHT22;30152;52.066;5.358;2023-02-19T17:15:11;7.90;99.90
44447;DHT22;30152;52.066;5.358;2023-02-19T17:17:38;7.50;99.90
44447;DHT22;30152;52.066;5.358;2023-02-19T17:20:24;7.80;99.90
44447;DHT22;30152;52.066;5.358;2023-02-19T17:22:55;7.40;99.90
44447;DHT22;30152;52.066;5.358;2023-02-19T17:25:21;7.60;99.90
44447;DHT22;30152;52.066;5.358;2023-02-19T17:27:47;8.10;99.90
44447;DHT22;30152;52.066;5.358;2023-02-19T17:32:50;7.50;99.90
44447;DHT22;30152;52.066;5.358;2023-02-19T17:40:26;7.40;99.90
44447;DHT22;30152;52.066;5.358;2023-02-19T17:42:52;7.00;99.90
44447;DHT22;30152;52.066;5.358;2023-02-19T17:47:43;7.30;99.90
44447;DHT22;30152;52.066;5.358;2023-02-19T17:50:20;7.10;99.90
44447;DHT22;30152;52.066;5.358;2023-02-19T17:55:14;6.80;99.90
44447;DHT22;30152;52.066;5.358;2023-02-19T18:00:11;7.00;99.90
44447;DHT22;30152;52.066;5.358;2023-02-19T18:09:55;7.30;99.90
44447;DHT22;30152;52.066;5.358;2023-02-19T18:14:46;7.20;99.90
44447;DHT22;30152;52.066;5.358;2023-02-19T18:17:12;7.30;99.90
44447;DHT22;30152;52.066;5.358;2023-02-19T18:19:42;7.20;99.90
44447;DHT22;30152;52.066;5.358;2023-02-19T18:24:33;7.20;99.90
44447;DHT22;30152;52.066;5.358;2023-02-19T18:26:59;7.30;99.90
44447;DHT22;30152;52.066;5.358;2023-02-19T18:34:19;7.10;99.90
44447;DHT22;30152;52.066;5.358;2023-02-19T18:36:45;7.10;99.90
44447;DHT22;30152;52.066;5.358;2023-02-19T18:44:03;7.10;99.90
44447;DHT22;30152;52.066;5.358;2023-02-19T18:51:22;7.70;99.90
44447;DHT22;30152;52.066;5.358;2023-02-19T18:53:48;6.40;99.90
44447;DHT22;30152;52.066;5.358;2023-02-19T18:56:14;6.90;99.90
44447;DHT22;30152;52.066;5.358;2023-02-19T19:01:05;7.00;99.90
44447;DHT22;30152;52.066;5.358;2023-02-19T19:05:57;6.30;99.90
44447;DHT22;30152;52.066;5.358;2023-02-19T19:08:23;6.80;99.90
44447;DHT22;30152;52.066;5.358;2023-02-19T19:10:48;6.50;99.90
44447;DHT22;30152;52.066;5.358;2023-02-19T19:13:14;6.40;99.90
44447;DHT22;30152;52.066;5.358;2023-02-19T19:15:39;6.70;99.90
44447;DHT22;30152;52.066;5.358;2023-02-19T19:22:58;5.90;99.90
44447;DHT22;30152;52.066;5.358;2023-02-19T19:25:23;6.50;99.90
44447;DHT22;30152;52.066;5.358;2023-02-19T19:27:53;6.20;99.90
44447;DHT22;30152;52.066;5.358;2023-02-19T19:32:47;6.30;99.90
44447;DHT22;30152;52.066;5.358;2023-02-19T19:35:15;5.90;99.90
44447;DHT22;30152;52.066;5.358;2023-02-19T19:44:59;6.10;99.90
44447;DHT22;30152;52.066;5.358;2023-02-19T19:47:25;6.20;99.90
44447;DHT22;30152;52.066;5.358;2023-02-19T19:49:50;5.80;99.90
44447;DHT22;30152;52.066;5.358;2023-02-19T19:54:42;5.50;99.90
44447;DHT22;30152;52.066;5.358;2023-02-19T19:57:08;5.80;99.90
44447;DHT22;30152;52.066;5.358;2023-02-19T19:59:34;5.80;99.90
44447;DHT22;30152;52.066;5.358;2023-02-19T20:02:01;5.70;99.90
44447;DHT22;30152;52.066;5.358;2023-02-19T20:04:28;5.90;99.90
44447;DHT22;30152;52.066;5.358;2023-02-19T20:06:54;5.60;99.90
44447;DHT22;30152;52.066;5.358;2023-02-19T20:09:20;5.90;99.90
44447;DHT22;30152;52.066;5.358;2023-02-19T20:11:51;5.60;99.90
44447;DHT22;30152;52.066;5.358;2023-02-19T20:14:18;5.70;99.90
44447;DHT22;30152;52.066;5.358;2023-02-19T20:16:45;5.90;99.90
44447;DHT22;30152;52.066;5.358;2023-02-19T20:19:12;5.50;99.90
44447;DHT22;30152;52.066;5.358;2023-02-19T20:21:38;5.30;99.90
44447;DHT22;30152;52.066;5.358;2023-02-19T20:28:57;6.30;99.90
44447;DHT22;30152;52.066;5.358;2023-02-19T20:33:49;5.60;99.90
44447;DHT22;30152;52.066;5.358;2023-02-19T20:36:16;5.40;99.90
44447;DHT22;30152;52.066;5.358;2023-02-19T20:41:11;5.40;99.90
44447;DHT22;30152;52.066;5.358;2023-02-19T20:43:36;5.30;99.90
44447;DHT22;30152;52.066;5.358;2023-02-19T20:50:54;5.20;99.90
44447;DHT22;30152;52.066;5.358;2023-02-19T20:53:27;5.40;99.90
44447;DHT22;30152;52.066;5.358;2023-02-19T20:58:21;5.40;99.90
44447;DHT22;30152;52.066;5.358;2023-02-19T21:00:46;5.40;99.90
44447;DHT22;30152;52.066;5.358;2023-02-19T21:08:04;5.40;99.90
44447;DHT22;30152;52.066;5.358;2023-02-19T21:10:30;5.30;99.90
44447;DHT22;30152;52.066;5.358;2023-02-19T21:12:55;5.10;99.90
44447;DHT22;30152;52.066;5.358;2023-02-19T21:15:22;5.20;99.90
44447;DHT22;30152;52.066;5.358;2023-02-19T21:17:48;5.10;99.90
44447;DHT22;30152;52.066;5.358;2023-02-19T21:20:15;5.30;99.90
44447;DHT22;30152;52.066;5.358;2023-02-19T21:30:02;5.40;99.90
44447;DHT22;30152;52.066;5.358;2023-02-19T21:32:28;6.00;99.90
44447;DHT22;30152;52.066;5.358;2023-02-19T21:37:19;5.20;99.90
44447;DHT22;30152;52.066;5.358;2023-02-19T21:42:11;5.60;99.90
44447;DHT22;30152;52.066;5.358;2023-02-19T21:47:02;6.10;99.90
44447;DHT22;30152;52.066;5.358;2023-02-19T21:51:54;5.10;99.90
44447;DHT22;30152;52.066;5.358;2023-02-19T21:54:22;5.40;99.90
44447;DHT22;30152;52.066;5.358;2023-02-19T21:56:51;5.10;99.90
44447;DHT22;30152;52.066;5.358;2023-02-19T21:59:20;5.50;99.90
44447;DHT22;30152;52.066;5.358;2023-02-19T22:01:47;5.20;99.90
44447;DHT22;30152;52.066;5.358;2023-02-19T22:04:15;5.10;99.90
44447;DHT22;30152;52.066;5.358;2023-02-19T22:06:41;5.20;99.90
44447;DHT22;30152;52.066;5.358;2023-02-19T22:09:07;5.30;99.90
44447;DHT22;30152;52.066;5.358;2023-02-19T22:11:33;5.30;99.90
44447;DHT22;30152;52.066;5.358;2023-02-19T22:18:52;5.30;99.90
44447;DHT22;30152;52.066;5.358;2023-02-19T22:21:20;5.30;99.90
44447;DHT22;30152;52.066;5.358;2023-02-19T22:23:47;6.30;99.90
44447;DHT22;30152;52.066;5.358;2023-02-19T22:26:26;5.10;99.90
44447;DHT22;30152;52.066;5.358;2023-02-19T22:28:54;6.10;99.90
44447;DHT22;30152;52.066;5.358;2023-02-19T22:31:22;5.20;99.90
44447;DHT22;30152;52.066;5.358;2023-02-19T22:36:26;6.30;99.90
44447;DHT22;30152;52.066;5.358;2023-02-19T22:41:19;4.80;99.90
